sensor_id;sensor_type;location;lat;lon;timestamp;pressure;altitude;pressure_sealevel;temperature;humidity
33153;BME280;19509;43.862;26.176;2023-04-04T00:01:23;100093.28;;;5.71;98.74
33153;BME280;19509;43.862;26.176;2023-04-04T00:03:49;100099.25;;;5.73;99.37
33153;BME280;19509;43.862;26.176;2023-04-04T00:06:16;100097.16;;;5.68;99.17
33153;BME280;19509;43.862;26.176;2023-04-04T00:08:42;100092.63;;;5.69;99.15
33153;BME280;19509;43.862;26.176;2023-04-04T00:11:07;100099.81;;;5.68;98.66
33153;BME280;19509;43.862;26.176;2023-04-04T00:13:33;100087.66;;;5.66;98.33
33153;BME280;19509;43.862;26.176;2023-04-04T00:15:58;100094.22;;;5.63;97.70
33153;BME280;19509;43.862;26.176;2023-04-04T00:18:24;100083.34;;;5.65;97.79
33153;BME280;19509;43.862;26.176;2023-04-04T00:20:50;100088.69;;;5.65;97.97
33153;BME280;19509;43.862;26.176;2023-04-04T00:23:15;100092.94;;;5.59;97.54
33153;BME280;19509;43.862;26.176;2023-04-04T00:25:40;100091.09;;;5.60;97.21
33153;BME280;19509;43.862;26.176;2023-04-04T00:28:06;100080.19;;;5.55;96.36
33153;BME280;19509;43.862;26.176;2023-04-04T00:30:33;100074.56;;;5.50;97.50
33153;BME280;19509;43.862;26.176;2023-04-04T00:32:58;100069.69;;;5.53;96.75
33153;BME280;19509;43.862;26.176;2023-04-04T00:35:26;100044.75;;;5.46;96.85
33153;BME280;19509;43.862;26.176;2023-04-04T00:37:52;100044.38;;;5.49;97.09
33153;BME280;19509;43.862;26.176;2023-04-04T00:40:17;100042.09;;;5.46;97.51
33153;BME280;19509;43.862;26.176;2023-04-04T00:42:43;100044.75;;;-97.21;97.72
33153;BME280;19509;43.862;26.176;2023-04-04T00:45:10;100047.63;;;5.44;100.00
33153;BME280;19509;43.862;26.176;2023-04-04T00:47:36;100055.66;;;5.44;97.59
33153;BME280;19509;43.862;26.176;2023-04-04T00:50:02;105295.19;;;5.43;97.78
33153;BME280;19509;43.862;26.176;2023-04-04T00:52:28;100056.59;;;5.37;98.06
33153;BME280;19509;43.862;26.176;2023-04-04T00:54:55;100066.19;;;5.31;97.70
33153;BME280;19509;43.862;26.176;2023-04-04T00:57:21;100038.41;;;5.26;97.46
33153;BME280;19509;43.862;26.176;2023-04-04T00:59:48;100047.81;;;5.21;97.60
33153;BME280;19509;43.862;26.176;2023-04-04T01:02:15;100045.72;;;5.17;96.90
33153;BME280;19509;43.862;26.176;2023-04-04T01:04:40;100040.91;;;5.12;96.71
33153;BME280;19509;43.862;26.176;2023-04-04T01:07:07;100036.72;;;5.03;96.55
33153;BME280;19509;43.862;26.176;2023-04-04T01:09:32;100049.63;;;5.00;96.69
33153;BME280;19509;43.862;26.176;2023-04-04T01:11:58;100026.00;;;4.96;96.89
33153;BME280;19509;43.862;26.176;2023-04-04T01:14:24;100036.75;;;4.88;96.14
33153;BME280;19509;43.862;26.176;2023-04-04T01:16:50;100019.22;;;4.79;96.03
33153;BME280;19509;43.862;26.176;2023-04-04T01:19:25;100024.72;;;4.78;96.16
33153;BME280;19509;43.862;26.176;2023-04-04T01:21:54;100024.94;;;4.76;96.71
33153;BME280;19509;43.862;26.176;2023-04-04T01:24:22;100029.59;;;4.74;96.04
33153;BME280;19509;43.862;26.176;2023-04-04T01:26:49;100018.94;;;4.74;95.90
33153;BME280;19509;43.862;26.176;2023-04-04T01:29:15;100016.38;;;4.66;95.88
33153;BME280;19509;43.862;26.176;2023-04-04T01:31:42;100018.50;;;4.70;96.06
33153;BME280;19509;43.862;26.176;2023-04-04T01:37:10;100025.38;;;4.65;94.80
33153;BME280;19509;43.862;26.176;2023-04-04T01:39:48;100022.25;;;4.61;94.38
33153;BME280;19509;43.862;26.176;2023-04-04T01:42:17;100017.66;;;4.55;94.60
33153;BME280;19509;43.862;26.176;2023-04-04T01:44:44;99998.03;;;4.56;94.78
33153;BME280;19509;43.862;26.176;2023-04-04T01:47:13;99996.75;;;4.52;94.29
33153;BME280;19509;43.862;26.176;2023-04-04T01:49:39;100007.31;;;4.45;94.75
33153;BME280;19509;43.862;26.176;2023-04-04T01:52:05;99987.25;;;4.35;94.23
33153;BME280;19509;43.862;26.176;2023-04-04T01:54:31;99982.03;;;4.41;94.77
33153;BME280;19509;43.862;26.176;2023-04-04T01:56:58;99967.25;;;4.39;94.79
33153;BME280;19509;43.862;26.176;2023-04-04T01:59:23;99943.19;;;4.32;95.55
33153;BME280;19509;43.862;26.176;2023-04-04T02:01:49;99938.97;;;4.23;95.81
33153;BME280;19509;43.862;26.176;2023-04-04T02:04:15;99947.16;;;4.21;96.40
33153;BME280;19509;43.862;26.176;2023-04-04T02:06:40;99948.81;;;4.22;96.63
33153;BME280;19509;43.862;26.176;2023-04-04T02:09:06;99951.00;;;4.19;96.67
33153;BME280;19509;43.862;26.176;2023-04-04T02:11:32;99961.47;;;4.20;97.34
33153;BME280;19509;43.862;26.176;2023-04-04T02:13:57;99993.16;;;4.15;97.51
33153;BME280;19509;43.862;26.176;2023-04-04T02:16:23;100003.63;;;4.17;97.98
33153;BME280;19509;43.862;26.176;2023-04-04T02:18:48;99992.16;;;4.16;98.01
33153;BME280;19509;43.862;26.176;2023-04-04T02:21:14;99967.53;;;4.14;97.19
33153;BME280;19509;43.862;26.176;2023-04-04T02:23:39;99979.56;;;4.10;97.35
33153;BME280;19509;43.862;26.176;2023-04-04T02:26:05;99985.19;;;4.15;97.67
33153;BME280;19509;43.862;26.176;2023-04-04T02:28:31;99994.16;;;4.14;97.51
33153;BME280;19509;43.862;26.176;2023-04-04T02:31:00;99996.81;;;4.14;98.23
33153;BME280;19509;43.862;26.176;2023-04-04T02:33:29;99999.69;;;4.13;97.77
33153;BME280;19509;43.862;26.176;2023-04-04T02:35:59;99996.00;;;4.14;97.72
33153;BME280;19509;43.862;26.176;2023-04-04T02:38:25;99983.91;;;4.11;98.05
33153;BME280;19509;43.862;26.176;2023-04-04T02:40:51;99991.22;;;4.09;98.00
33153;BME280;19509;43.862;26.176;2023-04-04T02:43:16;100002.69;;;4.10;98.55
33153;BME280;19509;43.862;26.176;2023-04-04T02:45:42;100020.53;;;4.09;99.14
33153;BME280;19509;43.862;26.176;2023-04-04T02:48:07;100017.56;;;4.04;99.14
33153;BME280;19509;43.862;26.176;2023-04-04T02:50:35;100027.59;;;4.02;99.22
33153;BME280;19509;43.862;26.176;2023-04-04T02:53:01;100024.09;;;4.01;99.19
33153;BME280;19509;43.862;26.176;2023-04-04T02:55:27;100016.47;;;3.98;98.64
33153;BME280;19509;43.862;26.176;2023-04-04T02:57:53;99983.41;;;3.93;99.11
33153;BME280;19509;43.862;26.176;2023-04-04T03:00:18;99986.44;;;3.90;99.41
33153;BME280;19509;43.862;26.176;2023-04-04T03:02:44;99985.41;;;3.76;100.00
33153;BME280;19509;43.862;26.176;2023-04-04T03:05:10;99983.56;;;3.76;100.00
33153;BME280;19509;43.862;26.176;2023-04-04T03:07:35;99984.66;;;3.67;100.00
33153;BME280;19509;43.862;26.176;2023-04-04T03:10:01;99978.75;;;3.57;100.00
33153;BME280;19509;43.862;26.176;2023-04-04T03:12:27;99971.66;;;3.49;100.00
33153;BME280;19509;43.862;26.176;2023-04-04T03:14:52;99973.22;;;3.44;100.00
33153;BME280;19509;43.862;26.176;2023-04-04T03:17:18;99962.47;;;3.37;100.00
33153;BME280;19509;43.862;26.176;2023-04-04T03:19:44;99985.28;;;3.31;100.00
33153;BME280;19509;43.862;26.176;2023-04-04T03:22:10;99978.81;;;3.26;100.00
33153;BME280;19509;43.862;26.176;2023-04-04T03:24:35;99993.81;;;3.27;100.00
33153;BME280;19509;43.862;26.176;2023-04-04T03:27:01;99999.47;;;3.24;100.00
33153;BME280;19509;43.862;26.176;2023-04-04T03:29:27;99990.66;;;3.23;100.00
33153;BME280;19509;43.862;26.176;2023-04-04T03:31:52;99997.97;;;3.21;100.00
33153;BME280;19509;43.862;26.176;2023-04-04T03:34:18;100001.47;;;3.22;100.00
33153;BME280;19509;43.862;26.176;2023-04-04T03:36:43;100013.78;;;3.23;100.00
33153;BME280;19509;43.862;26.176;2023-04-04T03:39:11;100014.94;;;3.20;100.00
33153;BME280;19509;43.862;26.176;2023-04-04T03:41:37;100009.63;;;3.20;100.00
33153;BME280;19509;43.862;26.176;2023-04-04T03:44:05;100006.97;;;3.20;100.00
33153;BME280;19509;43.862;26.176;2023-04-04T03:46:31;99984.69;;;3.21;100.00
33153;BME280;19509;43.862;26.176;2023-04-04T03:48:57;99989.25;;;3.13;100.00
33153;BME280;19509;43.862;26.176;2023-04-04T03:51:24;99995.03;;;3.16;100.00
33153;BME280;19509;43.862;26.176;2023-04-04T03:53:49;100005.50;;;3.18;100.00
33153;BME280;19509;43.862;26.176;2023-04-04T03:56:15;100014.81;;;3.14;100.00
33153;BME280;19509;43.862;26.176;2023-04-04T03:58:41;100018.50;;;3.13;100.00
33153;BME280;19509;43.862;26.176;2023-04-04T04:01:06;100032.63;;;3.13;100.00
33153;BME280;19509;43.862;26.176;2023-04-04T04:03:32;100014.97;;;3.12;100.00
33153;BME280;19509;43.862;26.176;2023-04-04T04:05:58;99995.25;;;3.06;100.00
33153;BME280;19509;43.862;26.176;2023-04-04T04:08:24;100007.53;;;3.07;100.00
33153;BME280;19509;43.862;26.176;2023-04-04T04:10:49;100037.97;;;3.05;100.00
33153;BME280;19509;43.862;26.176;2023-04-04T04:13:15;100043.13;;;3.06;100.00
33153;BME280;19509;43.862;26.176;2023-04-04T04:15:41;100036.31;;;3.04;100.00
33153;BME280;19509;43.862;26.176;2023-04-04T04:18:06;100018.06;;;3.01;100.00
33153;BME280;19509;43.862;26.176;2023-04-04T04:20:32;100028.69;;;3.01;100.00
33153;BME280;19509;43.862;26.176;2023-04-04T04:22:57;100020.91;;;2.99;100.00
33153;BME280;19509;43.862;26.176;2023-04-04T04:25:23;100005.44;;;2.95;100.00
33153;BME280;19509;43.862;26.176;2023-04-04T04:27:48;100002.63;;;2.96;100.00
33153;BME280;19509;43.862;26.176;2023-04-04T04:30:14;100006.66;;;2.92;100.00
33153;BME280;19509;43.862;26.176;2023-04-04T04:32:39;100020.78;;;2.93;100.00
33153;BME280;19509;43.862;26.176;2023-04-04T04:35:06;100029.38;;;2.95;100.00
33153;BME280;19509;43.862;26.176;2023-04-04T04:37:31;100037.34;;;2.95;100.00
33153;BME280;19509;43.862;26.176;2023-04-04T04:39:57;100032.38;;;2.92;100.00
33153;BME280;19509;43.862;26.176;2023-04-04T04:42:24;100032.03;;;2.95;100.00
33153;BME280;19509;43.862;26.176;2023-04-04T04:44:50;100039.19;;;2.94;100.00
33153;BME280;19509;43.862;26.176;2023-04-04T04:47:15;100020.28;;;2.89;100.00
33153;BME280;19509;43.862;26.176;2023-04-04T04:49:41;100005.16;;;2.90;100.00
33153;BME280;19509;43.862;26.176;2023-04-04T04:52:08;100016.97;;;2.87;100.00
33153;BME280;19509;43.862;26.176;2023-04-04T04:54:34;100029.38;;;2.95;100.00
33153;BME280;19509;43.862;26.176;2023-04-04T04:56:59;100025.75;;;2.88;100.00
33153;BME280;19509;43.862;26.176;2023-04-04T04:59:25;100004.22;;;2.82;100.00
33153;BME280;19509;43.862;26.176;2023-04-04T05:01:51;100010.22;;;2.76;100.00
33153;BME280;19509;43.862;26.176;2023-04-04T05:04:16;100003.91;;;2.77;100.00
33153;BME280;19509;43.862;26.176;2023-04-04T05:06:42;100008.38;;;2.77;100.00
33153;BME280;19509;43.862;26.176;2023-04-04T05:09:08;99997.94;;;2.75;100.00
33153;BME280;19509;43.862;26.176;2023-04-04T05:11:33;99999.25;;;2.79;100.00
33153;BME280;19509;43.862;26.176;2023-04-04T05:13:59;100014.03;;;2.82;100.00
33153;BME280;19509;43.862;26.176;2023-04-04T05:16:25;100015.69;;;2.75;100.00
33153;BME280;19509;43.862;26.176;2023-04-04T05:18:50;100015.06;;;2.73;100.00
33153;BME280;19509;43.862;26.176;2023-04-04T05:21:16;100006.41;;;2.71;100.00
33153;BME280;19509;43.862;26.176;2023-04-04T05:23:42;100002.28;;;2.68;100.00
33153;BME280;19509;43.862;26.176;2023-04-04T05:26:09;100013.22;;;2.73;100.00
33153;BME280;19509;43.862;26.176;2023-04-04T05:28:34;100022.00;;;2.74;100.00
33153;BME280;19509;43.862;26.176;2023-04-04T05:31:00;100022.88;;;2.66;100.00
33153;BME280;19509;43.862;26.176;2023-04-04T05:33:26;100006.94;;;2.66;100.00
33153;BME280;19509;43.862;26.176;2023-04-04T05:35:51;100003.81;;;2.63;100.00
33153;BME280;19509;43.862;26.176;2023-04-04T05:38:17;99995.50;;;2.57;100.00
33153;BME280;19509;43.862;26.176;2023-04-04T05:40:42;100003.47;;;2.57;100.00
33153;BME280;19509;43.862;26.176;2023-04-04T05:43:09;100008.03;;;2.49;100.00
33153;BME280;19509;43.862;26.176;2023-04-04T05:45:35;100013.81;;;2.52;100.00
33153;BME280;19509;43.862;26.176;2023-04-04T05:48:01;100010.19;;;2.37;100.00
33153;BME280;19509;43.862;26.176;2023-04-04T05:50:26;100012.50;;;2.40;100.00
33153;BME280;19509;43.862;26.176;2023-04-04T05:52:53;100009.38;;;2.36;100.00
33153;BME280;19509;43.862;26.176;2023-04-04T05:55:19;99998.63;;;2.30;100.00
33153;BME280;19509;43.862;26.176;2023-04-04T05:57:48;100032.00;;;2.24;100.00
33153;BME280;19509;43.862;26.176;2023-04-04T06:00:14;100031.00;;;2.25;100.00
33153;BME280;19509;43.862;26.176;2023-04-04T06:02:40;100046.75;;;2.27;100.00
33153;BME280;19509;43.862;26.176;2023-04-04T06:05:07;100070.81;;;2.25;100.00
33153;BME280;19509;43.862;26.176;2023-04-04T06:07:32;100101.34;;;2.29;100.00
33153;BME280;19509;43.862;26.176;2023-04-04T06:09:58;100143.66;;;2.31;100.00
33153;BME280;19509;43.862;26.176;2023-04-04T06:12:23;100153.44;;;2.30;100.00
33153;BME280;19509;43.862;26.176;2023-04-04T06:14:49;100155.28;;;2.30;100.00
33153;BME280;19509;43.862;26.176;2023-04-04T06:17:15;100127.41;;;2.26;100.00
33153;BME280;19509;43.862;26.176;2023-04-04T06:19:40;100088.72;;;2.23;100.00
33153;BME280;19509;43.862;26.176;2023-04-04T06:22:06;100102.53;;;2.19;100.00
33153;BME280;19509;43.862;26.176;2023-04-04T06:24:32;100107.84;;;2.19;100.00
33153;BME280;19509;43.862;26.176;2023-04-04T06:26:57;100113.44;;;2.24;100.00
33153;BME280;19509;43.862;26.176;2023-04-04T06:29:23;100117.28;;;2.21;100.00
33153;BME280;19509;43.862;26.176;2023-04-04T06:31:48;100124.06;;;2.24;100.00
33153;BME280;19509;43.862;26.176;2023-04-04T06:34:14;100115.13;;;2.25;100.00
33153;BME280;19509;43.862;26.176;2023-04-04T06:36:39;100110.16;;;2.22;100.00
33153;BME280;19509;43.862;26.176;2023-04-04T06:39:05;100107.66;;;2.28;100.00
33153;BME280;19509;43.862;26.176;2023-04-04T06:41:30;100090.72;;;2.29;100.00
33153;BME280;19509;43.862;26.176;2023-04-04T06:43:57;100085.94;;;2.25;100.00
33153;BME280;19509;43.862;26.176;2023-04-04T06:46:22;100074.31;;;2.26;100.00
33153;BME280;19509;43.862;26.176;2023-04-04T06:48:49;100083.28;;;2.25;100.00
33153;BME280;19509;43.862;26.176;2023-04-04T06:51:15;100082.59;;;2.23;100.00
33153;BME280;19509;43.862;26.176;2023-04-04T06:53:40;100088.41;;;2.26;100.00
33153;BME280;19509;43.862;26.176;2023-04-04T06:56:06;100086.25;;;2.13;100.00
33153;BME280;19509;43.862;26.176;2023-04-04T06:58:33;100084.59;;;2.21;100.00
33153;BME280;19509;43.862;26.176;2023-04-04T07:01:00;100077.97;;;2.17;100.00
33153;BME280;19509;43.862;26.176;2023-04-04T07:03:25;100077.97;;;2.25;100.00
33153;BME280;19509;43.862;26.176;2023-04-04T07:05:51;100076.13;;;2.25;100.00
33153;BME280;19509;43.862;26.176;2023-04-04T07:08:17;100066.34;;;2.26;100.00
33153;BME280;19509;43.862;26.176;2023-04-04T07:10:42;100058.22;;;2.19;100.00
33153;BME280;19509;43.862;26.176;2023-04-04T07:13:08;100066.84;;;2.21;100.00
33153;BME280;19509;43.862;26.176;2023-04-04T07:15:34;100051.41;;;2.17;100.00
33153;BME280;19509;43.862;26.176;2023-04-04T07:17:59;100059.72;;;2.22;100.00
33153;BME280;19509;43.862;26.176;2023-04-04T07:20:26;100060.69;;;2.21;100.00
33153;BME280;19509;43.862;26.176;2023-04-04T07:22:52;100055.38;;;2.21;100.00
33153;BME280;19509;43.862;26.176;2023-04-04T07:25:18;100043.59;;;2.23;100.00
33153;BME280;19509;43.862;26.176;2023-04-04T07:27:44;100057.41;;;2.19;100.00
33153;BME280;19509;43.862;26.176;2023-04-04T07:30:10;100047.94;;;2.24;100.00
33153;BME280;19509;43.862;26.176;2023-04-04T07:32:35;100047.56;;;2.27;100.00
33153;BME280;19509;43.862;26.176;2023-04-04T07:35:05;100056.38;;;2.28;100.00
33153;BME280;19509;43.862;26.176;2023-04-04T07:37:31;100059.69;;;2.30;100.00
33153;BME280;19509;43.862;26.176;2023-04-04T07:39:57;100056.22;;;2.21;100.00
33153;BME280;19509;43.862;26.176;2023-04-04T07:42:23;100053.38;;;2.31;100.00
33153;BME280;19509;43.862;26.176;2023-04-04T07:44:49;100046.25;;;2.31;100.00
33153;BME280;19509;43.862;26.176;2023-04-04T07:47:15;100044.72;;;2.37;100.00
33153;BME280;19509;43.862;26.176;2023-04-04T07:49:41;100047.38;;;2.45;100.00
33153;BME280;19509;43.862;26.176;2023-04-04T07:52:06;100061.47;;;2.46;100.00
33153;BME280;19509;43.862;26.176;2023-04-04T07:54:33;100048.38;;;2.36;100.00
33153;BME280;19509;43.862;26.176;2023-04-04T07:56:59;100062.34;;;2.38;100.00
33153;BME280;19509;43.862;26.176;2023-04-04T07:59:24;100060.50;;;2.39;100.00
33153;BME280;19509;43.862;26.176;2023-04-04T08:01:50;100059.19;;;2.34;100.00
33153;BME280;19509;43.862;26.176;2023-04-04T08:04:16;100054.53;;;2.36;100.00
33153;BME280;19509;43.862;26.176;2023-04-04T08:06:41;100056.50;;;2.43;100.00
33153;BME280;19509;43.862;26.176;2023-04-04T08:09:06;100051.88;;;2.36;100.00
33153;BME280;19509;43.862;26.176;2023-04-04T08:11:32;100048.06;;;2.31;100.00
33153;BME280;19509;43.862;26.176;2023-04-04T08:13:58;100063.66;;;2.34;100.00
33153;BME280;19509;43.862;26.176;2023-04-04T08:16:24;100060.34;;;2.32;100.00
33153;BME280;19509;43.862;26.176;2023-04-04T08:18:49;100047.56;;;2.27;100.00
33153;BME280;19509;43.862;26.176;2023-04-04T08:21:15;100055.53;;;2.27;100.00
33153;BME280;19509;43.862;26.176;2023-04-04T08:23:41;100050.06;;;2.29;100.00
33153;BME280;19509;43.862;26.176;2023-04-04T08:26:07;100057.22;;;2.28;100.00
33153;BME280;19509;43.862;26.176;2023-04-04T08:28:32;100050.41;;;2.26;100.00
33153;BME280;19509;43.862;26.176;2023-04-04T08:30:58;100051.22;;;2.26;100.00
33153;BME280;19509;43.862;26.176;2023-04-04T08:33:23;100049.41;;;2.27;100.00
33153;BME280;19509;43.862;26.176;2023-04-04T08:35:49;100037.94;;;2.26;100.00
33153;BME280;19509;43.862;26.176;2023-04-04T08:38:15;100036.78;;;2.29;100.00
33153;BME280;19509;43.862;26.176;2023-04-04T08:40:45;100029.47;;;2.31;100.00
33153;BME280;19509;43.862;26.176;2023-04-04T08:43:13;100022.34;;;2.31;100.00
33153;BME280;19509;43.862;26.176;2023-04-04T08:45:41;100025.00;;;2.31;100.00
33153;BME280;19509;43.862;26.176;2023-04-04T08:48:10;100028.50;;;2.32;100.00
33153;BME280;19509;43.862;26.176;2023-04-04T08:50:38;100025.66;;;2.33;100.00
33153;BME280;19509;43.862;26.176;2023-04-04T08:53:03;100034.28;;;2.35;100.00
33153;BME280;19509;43.862;26.176;2023-04-04T08:55:30;100033.47;;;2.35;100.00
33153;BME280;19509;43.862;26.176;2023-04-04T08:57:56;100024.81;;;2.33;100.00
33153;BME280;19509;43.862;26.176;2023-04-04T09:00:22;100031.28;;;2.30;100.00
33153;BME280;19509;43.862;26.176;2023-04-04T09:05:18;100039.13;;;2.24;100.00
33153;BME280;19509;43.862;26.176;2023-04-04T09:07:44;100037.63;;;2.29;100.00
33153;BME280;19509;43.862;26.176;2023-04-04T09:10:10;100041.28;;;2.28;100.00
33153;BME280;19509;43.862;26.176;2023-04-04T09:12:42;100039.97;;;2.24;100.00
33153;BME280;19509;43.862;26.176;2023-04-04T09:15:09;100044.09;;;2.27;100.00
33153;BME280;19509;43.862;26.176;2023-04-04T09:17:35;100036.78;;;2.21;100.00
33153;BME280;19509;43.862;26.176;2023-04-04T09:20:02;100047.41;;;2.29;100.00
33153;BME280;19509;43.862;26.176;2023-04-04T09:22:28;100043.94;;;2.28;100.00
33153;BME280;19509;43.862;26.176;2023-04-04T09:24:55;100044.75;;;2.29;100.00
33153;BME280;19509;43.862;26.176;2023-04-04T09:27:20;100031.47;;;2.21;100.00
33153;BME280;19509;43.862;26.176;2023-04-04T09:29:46;100044.09;;;2.27;100.00
33153;BME280;19509;43.862;26.176;2023-04-04T09:32:15;100025.69;;;2.25;100.00
33153;BME280;19509;43.862;26.176;2023-04-04T09:34:41;100038.47;;;2.22;100.00
33153;BME280;19509;43.862;26.176;2023-04-04T09:37:07;100033.47;;;2.27;100.00
33153;BME280;19509;43.862;26.176;2023-04-04T09:39:33;100036.59;;;2.30;100.00
33153;BME280;19509;43.862;26.176;2023-04-04T09:42:00;100040.59;;;2.34;100.00
33153;BME280;19509;43.862;26.176;2023-04-04T09:44:26;100027.47;;;2.33;100.00
33153;BME280;19509;43.862;26.176;2023-04-04T09:47:27;100041.09;;;2.38;100.00
33153;BME280;19509;43.862;26.176;2023-04-04T09:49:58;100049.53;;;2.42;100.00
33153;BME280;19509;43.862;26.176;2023-04-04T09:52:25;100042.41;;;2.42;100.00
33153;BME280;19509;43.862;26.176;2023-04-04T09:55:01;100051.34;;;2.49;100.00
33153;BME280;19509;43.862;26.176;2023-04-04T09:57:32;100024.16;;;2.39;100.00
33153;BME280;19509;43.862;26.176;2023-04-04T10:00:04;100028.06;;;2.51;100.00
33153;BME280;19509;43.862;26.176;2023-04-04T10:02:33;100032.25;;;2.46;100.00
33153;BME280;19509;43.862;26.176;2023-04-04T10:05:02;100030.38;;;2.54;100.00
33153;BME280;19509;43.862;26.176;2023-04-04T10:07:29;100026.75;;;2.55;100.00
33153;BME280;19509;43.862;26.176;2023-04-04T10:09:55;100034.38;;;2.58;100.00
33153;BME280;19509;43.862;26.176;2023-04-04T10:12:24;100028.88;;;2.60;100.00
33153;BME280;19509;43.862;26.176;2023-04-04T10:14:56;100017.09;;;2.63;100.00
33153;BME280;19509;43.862;26.176;2023-04-04T10:17:25;100028.22;;;2.58;100.00
33153;BME280;19509;43.862;26.176;2023-04-04T10:19:59;100030.38;;;2.54;100.00
33153;BME280;19509;43.862;26.176;2023-04-04T10:22:27;100027.09;;;2.52;100.00
33153;BME280;19509;43.862;26.176;2023-04-04T10:24:52;100023.94;;;2.49;100.00
33153;BME280;19509;43.862;26.176;2023-04-04T10:27:19;100026.94;;;2.46;100.00
33153;BME280;19509;43.862;26.176;2023-04-04T10:29:45;100034.91;;;2.46;100.00
33153;BME280;19509;43.862;26.176;2023-04-04T10:32:16;100034.41;;;2.50;100.00
33153;BME280;19509;43.862;26.176;2023-04-04T10:38:01;100035.06;;;2.52;100.00
33153;BME280;19509;43.862;26.176;2023-04-04T10:40:35;100027.91;;;2.53;100.00
33153;BME280;19509;43.862;26.176;2023-04-04T10:43:04;100029.91;;;2.59;100.00
33153;BME280;19509;43.862;26.176;2023-04-04T10:45:34;100027.56;;;2.56;100.00
33153;BME280;19509;43.862;26.176;2023-04-04T10:48:02;100022.25;;;2.56;100.00
33153;BME280;19509;43.862;26.176;2023-04-04T10:50:28;100026.41;;;2.58;100.00
33153;BME280;19509;43.862;26.176;2023-04-04T10:52:57;100019.59;;;2.56;100.00
33153;BME280;19509;43.862;26.176;2023-04-04T10:55:25;100021.91;;;2.59;100.00
33153;BME280;19509;43.862;26.176;2023-04-04T10:57:52;100030.38;;;2.63;100.00
33153;BME280;19509;43.862;26.176;2023-04-04T11:00:20;100019.41;;;2.57;100.00
33153;BME280;19509;43.862;26.176;2023-04-04T11:02:57;100016.59;;;2.59;100.00
33153;BME280;19509;43.862;26.176;2023-04-04T11:05:39;100027.53;;;2.64;100.00
33153;BME280;19509;43.862;26.176;2023-04-04T11:08:21;100022.06;;;2.66;100.00
33153;BME280;19509;43.862;26.176;2023-04-04T11:10:50;100023.19;;;2.71;100.00
33153;BME280;19509;43.862;26.176;2023-04-04T11:13:18;100021.59;;;2.62;100.00
33153;BME280;19509;43.862;26.176;2023-04-04T11:16:06;100030.31;;;2.71;100.00
33153;BME280;19509;43.862;26.176;2023-04-04T11:21:05;100031.69;;;2.67;100.00
33153;BME280;19509;43.862;26.176;2023-04-04T11:26:12;100019.69;;;2.71;100.00
33153;BME280;19509;43.862;26.176;2023-04-04T11:28:41;100033.66;;;2.73;100.00
33153;BME280;19509;43.862;26.176;2023-04-04T11:34:09;100025.63;;;2.81;100.00
33153;BME280;19509;43.862;26.176;2023-04-04T11:39:14;100031.91;;;2.88;100.00
33153;BME280;19509;43.862;26.176;2023-04-04T11:42:06;100018.31;;;2.83;100.00
33153;BME280;19509;43.862;26.176;2023-04-04T11:44:39;100023.09;;;2.88;100.00
33153;BME280;19509;43.862;26.176;2023-04-04T11:49:36;100026.28;;;2.83;100.00
33153;BME280;19509;43.862;26.176;2023-04-04T11:52:10;100018.47;;;2.81;100.00
33153;BME280;19509;43.862;26.176;2023-04-04T11:54:37;100023.78;;;2.90;100.00
33153;BME280;19509;43.862;26.176;2023-04-04T11:57:07;100026.72;;;2.95;100.00
33153;BME280;19509;43.862;26.176;2023-04-04T11:59:37;100025.75;;;2.96;100.00
33153;BME280;19509;43.862;26.176;2023-04-04T12:02:04;100025.34;;;3.07;100.00
33153;BME280;19509;43.862;26.176;2023-04-04T12:04:29;100028.28;;;3.12;100.00
33153;BME280;19509;43.862;26.176;2023-04-04T12:06:55;100031.53;;;3.22;100.00
33153;BME280;19509;43.862;26.176;2023-04-04T12:09:23;100028.25;;;3.20;100.00
33153;BME280;19509;43.862;26.176;2023-04-04T12:11:50;100043.59;;;3.10;100.00
33153;BME280;19509;43.862;26.176;2023-04-04T12:14:20;100039.19;;;2.94;100.00
33153;BME280;19509;43.862;26.176;2023-04-04T12:16:51;100045.16;;;2.96;100.00
33153;BME280;19509;43.862;26.176;2023-04-04T12:19:17;100045.53;;;2.85;100.00
33153;BME280;19509;43.862;26.176;2023-04-04T12:21:43;100050.06;;;2.76;100.00
33153;BME280;19509;43.862;26.176;2023-04-04T12:24:10;100040.78;;;2.72;100.00
33153;BME280;19509;43.862;26.176;2023-04-04T12:26:37;100028.47;;;2.79;100.00
33153;BME280;19509;43.862;26.176;2023-04-04T12:29:04;100027.66;;;2.71;100.00
33153;BME280;19509;43.862;26.176;2023-04-04T12:31:30;100032.97;;;2.79;100.00
33153;BME280;19509;43.862;26.176;2023-04-04T12:33:57;100034.91;;;2.85;100.00
33153;BME280;19509;43.862;26.176;2023-04-04T12:36:24;100028.75;;;2.84;100.00
33153;BME280;19509;43.862;26.176;2023-04-04T12:39:06;100036.25;;;2.81;100.00
33153;BME280;19509;43.862;26.176;2023-04-04T12:41:33;100031.78;;;2.81;100.00
33153;BME280;19509;43.862;26.176;2023-04-04T12:44:03;100035.22;;;2.90;100.00
33153;BME280;19509;43.862;26.176;2023-04-04T12:46:40;100034.91;;;2.85;100.00
33153;BME280;19509;43.862;26.176;2023-04-04T12:49:09;100030.31;;;2.79;100.00
33153;BME280;19509;43.862;26.176;2023-04-04T12:51:36;100030.31;;;2.79;100.00
33153;BME280;19509;43.862;26.176;2023-04-04T12:54:06;100035.28;;;2.82;100.00
33153;BME280;19509;43.862;26.176;2023-04-04T12:56:33;100032.78;;;2.80;100.00
33153;BME280;19509;43.862;26.176;2023-04-04T12:59:03;100027.13;;;2.83;100.00
33153;BME280;19509;43.862;26.176;2023-04-04T13:01:32;100024.28;;;2.85;100.00
33153;BME280;19509;43.862;26.176;2023-04-04T13:04:02;100026.28;;;2.83;100.00